createdAt,value
2018-07-13T00:00:40.666Z,17.10
2018-07-13T00:03:09.392Z,17.00
2018-07-13T00:05:37.701Z,17.00
2018-07-13T00:08:08.879Z,16.90
2018-07-13T00:10:40.261Z,16.80
2018-07-13T00:13:08.787Z,16.80
2018-07-13T00:15:44.661Z,16.80
2018-07-13T00:18:16.003Z,16.80
2018-07-13T00:20:44.550Z,16.80
2018-07-13T00:23:14.953Z,16.80
2018-07-13T00:25:46.708Z,16.70
2018-07-13T00:28:17.912Z,16.70
2018-07-13T00:30:47.195Z,16.70
2018-07-13T00:33:15.585Z,16.70
2018-07-13T00:35:43.966Z,16.60
2018-07-13T00:38:12.193Z,16.60
2018-07-13T00:40:40.461Z,16.60
2018-07-13T00:43:08.699Z,16.50
2018-07-13T00:45:38.007Z,16.50
2018-07-13T00:48:06.286Z,16.50
2018-07-13T00:50:34.567Z,16.50
2018-07-13T00:53:02.825Z,16.40
2018-07-13T00:55:31.146Z,16.40
2018-07-13T00:58:00.616Z,16.30
2018-07-13T01:00:33.070Z,16.30
2018-07-13T01:05:33.055Z,16.10
2018-07-13T01:08:01.410Z,16.00
2018-07-13T01:10:30.567Z,16.00
2018-07-13T01:13:02.131Z,15.90
2018-07-13T01:15:31.737Z,15.90
2018-07-13T01:18:01.136Z,15.80
2018-07-13T01:20:30.015Z,15.90
2018-07-13T01:22:58.344Z,16.00
2018-07-13T01:25:26.851Z,16.00
2018-07-13T01:27:55.124Z,15.90
2018-07-13T01:30:23.438Z,15.90
2018-07-13T01:32:51.711Z,15.90
2018-07-13T01:35:20.015Z,16.00
2018-07-13T01:37:48.291Z,16.00
2018-07-13T01:40:18.862Z,15.90
2018-07-13T01:42:47.190Z,15.80
2018-07-13T01:45:18.985Z,15.80
2018-07-13T01:47:50.076Z,15.80
2018-07-13T01:50:19.836Z,15.80
2018-07-13T01:52:48.205Z,15.80
2018-07-13T01:55:16.471Z,15.80
2018-07-13T01:57:46.961Z,15.90
2018-07-13T02:00:15.227Z,15.80
2018-07-13T02:02:43.918Z,15.90
2018-07-13T02:05:14.158Z,15.80
2018-07-13T02:07:45.248Z,15.80
2018-07-13T02:10:16.551Z,15.80
2018-07-13T02:12:45.821Z,15.80
2018-07-13T02:15:16.325Z,15.80
2018-07-13T02:17:45.979Z,15.70
2018-07-13T02:22:44.113Z,15.70
2018-07-13T02:25:14.023Z,15.60
2018-07-13T02:27:45.222Z,15.50
2018-07-13T02:30:14.798Z,15.50
2018-07-13T02:32:46.245Z,15.50
2018-07-13T02:35:14.614Z,15.50
2018-07-13T02:37:44.762Z,15.60
2018-07-13T02:40:15.983Z,15.60
2018-07-13T02:42:44.433Z,15.50
2018-07-13T02:45:15.706Z,15.50
2018-07-13T02:47:44.717Z,15.50
2018-07-13T02:50:12.994Z,15.50
2018-07-13T02:52:41.635Z,15.50
2018-07-13T02:55:10.590Z,15.50
2018-07-13T02:57:39.029Z,15.40
2018-07-13T03:00:07.610Z,15.40
2018-07-13T03:02:35.898Z,15.40
2018-07-13T03:05:04.448Z,15.40
2018-07-13T03:07:35.977Z,15.30
2018-07-13T03:10:05.684Z,15.30
2018-07-13T03:12:33.944Z,15.30
2018-07-13T03:15:02.827Z,15.30
2018-07-13T03:20:00.495Z,15.20
2018-07-13T03:22:30.143Z,15.20
2018-07-13T03:24:58.750Z,15.30
2018-07-13T03:27:27.014Z,15.30
2018-07-13T03:29:55.419Z,15.20
2018-07-13T03:32:23.694Z,15.20
2018-07-13T03:34:51.995Z,15.20
2018-07-13T03:37:20.909Z,15.20
2018-07-13T03:39:49.193Z,15.20
2018-07-13T03:42:17.595Z,15.20
2018-07-13T03:44:45.901Z,15.20
2018-07-13T03:47:14.166Z,15.20
2018-07-13T03:49:42.466Z,15.10
2018-07-13T03:52:10.771Z,15.10
2018-07-13T03:54:39.051Z,15.10
2018-07-13T03:57:09.766Z,15.10
2018-07-13T03:59:38.045Z,15.10
2018-07-13T04:02:06.354Z,15.10
2018-07-13T04:04:36.304Z,15.20
2018-07-13T04:07:04.930Z,15.20
2018-07-13T04:09:36.705Z,15.20
2018-07-13T04:12:05.158Z,15.30
2018-07-13T04:14:36.541Z,15.40
2018-07-13T04:17:08.584Z,15.40
2018-07-13T04:19:37.119Z,15.40
2018-07-13T04:22:06.310Z,15.40
2018-07-13T04:24:38.401Z,15.40
2018-07-13T04:27:06.962Z,15.40
2018-07-13T04:29:35.351Z,15.40
2018-07-13T04:32:03.638Z,15.40
2018-07-13T04:34:31.912Z,15.40
2018-07-13T04:37:00.241Z,15.40
2018-07-13T04:39:29.020Z,15.30
2018-07-13T04:41:59.145Z,15.30
2018-07-13T04:44:27.450Z,15.30
2018-07-13T04:46:55.816Z,15.40
2018-07-13T04:49:24.167Z,15.40
2018-07-13T04:51:52.494Z,15.40
2018-07-13T04:54:20.799Z,15.50
2018-07-13T04:56:49.187Z,15.50
2018-07-13T04:59:18.570Z,15.50
2018-07-13T05:01:47.001Z,15.60
2018-07-13T05:04:15.301Z,15.70
2018-07-13T05:09:19.016Z,15.90
2018-07-13T05:11:47.427Z,16.10
2018-07-13T05:14:15.840Z,16.10
2018-07-13T05:16:44.116Z,16.30
2018-07-13T05:19:15.347Z,16.40
2018-07-13T05:21:48.315Z,16.50
2018-07-13T05:24:21.194Z,16.50
2018-07-13T05:26:53.321Z,16.40
2018-07-13T05:29:24.610Z,16.40
2018-07-13T05:31:55.438Z,16.30
2018-07-13T05:34:23.770Z,16.30
2018-07-13T05:36:52.142Z,16.30
2018-07-13T05:39:20.477Z,16.40
2018-07-13T05:41:52.034Z,16.40
2018-07-13T05:44:22.529Z,16.40
2018-07-13T05:46:53.565Z,16.50
2018-07-13T05:49:25.358Z,16.60
2018-07-13T05:51:56.358Z,16.80
2018-07-13T05:54:28.666Z,16.80
2018-07-13T05:56:58.609Z,16.90
2018-07-13T05:59:28.021Z,17.00
2018-07-13T06:01:58.281Z,17.10
2018-07-13T06:04:26.633Z,17.20
2018-07-13T06:07:00.180Z,17.30
2018-07-13T06:09:30.143Z,17.60
2018-07-13T06:11:59.713Z,18.00
2018-07-13T06:14:31.491Z,18.50
2018-07-13T06:17:03.050Z,18.90
2018-07-13T06:19:32.710Z,19.10
2018-07-13T06:22:02.906Z,19.20
2018-07-13T06:24:33.671Z,19.20
2018-07-13T06:27:03.356Z,19.30
2018-07-13T06:29:32.007Z,19.50
2018-07-13T06:32:00.359Z,19.60
2018-07-13T06:34:28.645Z,19.70
2018-07-13T06:36:56.994Z,19.90
2018-07-13T06:39:25.286Z,20.10
2018-07-13T06:41:53.655Z,20.30
2018-07-13T06:44:23.090Z,20.60
2018-07-13T06:49:20.990Z,21.00
2018-07-13T06:51:49.338Z,21.20
2018-07-13T06:54:18.123Z,21.50
2018-07-13T06:56:46.554Z,21.90
2018-07-13T06:59:19.855Z,22.20
2018-07-13T07:01:48.805Z,22.50
2018-07-13T07:04:30.307Z,22.40
2018-07-13T07:07:06.730Z,22.70
2018-07-13T07:09:35.177Z,23.00
2018-07-13T07:13:46.909Z,23.30
2018-07-13T07:16:15.188Z,23.70
2018-07-13T07:18:45.282Z,24.40
2018-07-13T07:21:14.639Z,24.60
2018-07-13T07:23:44.417Z,24.70
2018-07-13T07:26:14.398Z,24.90
2018-07-13T07:31:11.722Z,24.90
2018-07-13T07:33:40.466Z,25.00
2018-07-13T07:36:09.255Z,25.30
2018-07-13T07:38:37.582Z,25.70
2018-07-13T07:41:05.922Z,26.20
2018-07-13T07:43:34.588Z,26.30
2018-07-13T07:46:03.047Z,26.30
2018-07-13T07:48:31.354Z,26.50
2018-07-13T07:53:27.706Z,26.80
2018-07-13T07:55:56.036Z,27.30
2018-07-13T07:58:24.362Z,27.50
2018-07-13T08:03:20.776Z,28.10
2018-07-13T08:05:50.198Z,28.00
2018-07-13T08:08:20.279Z,27.90
2018-07-13T08:10:48.776Z,27.70
2018-07-13T08:13:17.469Z,28.10
2018-07-13T08:15:46.047Z,28.30
2018-07-13T08:18:15.242Z,28.90
2018-07-13T08:20:47.537Z,29.70
2018-07-13T08:23:16.200Z,30.20
2018-07-13T08:25:45.660Z,30.60
2018-07-13T08:28:15.957Z,31.10
2018-07-13T08:30:49.921Z,32.60
2018-07-13T08:33:19.989Z,34.30
2018-07-13T08:35:48.942Z,35.50
2018-07-13T08:38:28.646Z,35.60
2018-07-13T08:40:57.258Z,34.60
2018-07-13T08:43:26.246Z,33.50
2018-07-13T08:45:54.931Z,34.40
2018-07-13T08:48:23.187Z,35.80
2018-07-13T08:50:51.503Z,36.40
2018-07-13T08:53:20.027Z,36.70
2018-07-13T08:55:48.456Z,37.40
2018-07-13T08:58:17.542Z,37.40
2018-07-13T09:00:48.478Z,36.90
2018-07-13T09:03:17.136Z,37.70
2018-07-13T09:05:47.681Z,37.70
2018-07-13T09:08:15.947Z,37.40
2018-07-13T09:10:44.265Z,37.00
2018-07-13T09:13:13.384Z,36.20
2018-07-13T09:15:43.259Z,36.50
2018-07-13T09:18:12.519Z,36.90
2018-07-13T09:20:42.676Z,36.80
2018-07-13T09:23:12.812Z,36.70
2018-07-13T09:25:41.838Z,36.20
2018-07-13T09:28:11.501Z,34.90
2018-07-13T09:33:07.910Z,35.30
2018-07-13T09:35:36.219Z,35.90
2018-07-13T09:38:04.569Z,36.20
2018-07-13T09:43:02.437Z,35.00
2018-07-13T09:45:31.880Z,35.20
2018-07-13T09:48:00.204Z,35.20
2018-07-13T09:50:28.843Z,35.40
2018-07-13T09:52:57.627Z,34.80
2018-07-13T09:55:25.994Z,34.80
2018-07-13T09:57:54.777Z,34.90
2018-07-13T10:00:28.797Z,35.60
2018-07-13T10:02:57.270Z,36.00
2018-07-13T10:05:26.004Z,36.20
2018-07-13T10:07:54.389Z,34.90
2018-07-13T10:10:22.682Z,34.10
2018-07-13T10:12:51.010Z,34.60
2018-07-13T10:15:19.278Z,32.90
2018-07-13T10:17:47.582Z,32.80
2018-07-13T10:20:15.866Z,33.00
2018-07-13T10:22:44.254Z,33.20
2018-07-13T10:25:15.769Z,33.80
2018-07-13T10:27:45.142Z,33.90
2018-07-13T10:30:15.186Z,34.10
2018-07-13T10:32:45.833Z,34.80
2018-07-13T10:35:15.308Z,35.10
2018-07-13T10:37:44.404Z,35.10
2018-07-13T10:40:13.573Z,35.70
2018-07-13T10:42:43.633Z,35.80
2018-07-13T10:45:12.832Z,35.40
2018-07-13T10:47:42.812Z,36.20
2018-07-13T10:50:12.147Z,36.20
2018-07-13T10:52:41.378Z,35.20
2018-07-13T10:55:42.966Z,34.00
2018-07-13T10:58:11.294Z,32.50
2018-07-13T11:00:39.609Z,30.80
2018-07-13T11:03:08.196Z,30.20
2018-07-13T11:05:36.509Z,30.00
2018-07-13T11:08:05.524Z,30.10
2018-07-13T11:10:34.942Z,30.00
2018-07-13T11:13:07.506Z,30.00
2018-07-13T11:15:37.180Z,29.60
2018-07-13T11:18:05.993Z,29.70
2018-07-13T11:20:35.138Z,29.70
2018-07-13T11:23:04.346Z,29.80
2018-07-13T11:25:32.864Z,30.00
2018-07-13T11:28:01.193Z,29.80
2018-07-13T11:30:29.482Z,29.40
2018-07-13T11:32:58.950Z,29.00
2018-07-13T11:35:27.223Z,29.00
2018-07-13T11:37:55.593Z,29.30
2018-07-13T11:40:23.857Z,29.30
2018-07-13T11:45:20.142Z,28.90
2018-07-13T11:47:48.398Z,28.20
2018-07-13T11:50:16.712Z,27.90
2018-07-13T11:52:45.350Z,28.10
2018-07-13T11:55:13.695Z,28.30
2018-07-13T11:57:43.796Z,28.20
2018-07-13T12:00:13.342Z,28.20
2018-07-13T12:02:42.314Z,28.10
2018-07-13T12:05:10.866Z,27.90
2018-07-13T12:07:39.882Z,27.70
2018-07-13T12:10:08.651Z,27.70
2018-07-13T12:15:07.010Z,27.70
2018-07-13T12:17:35.739Z,27.80
2018-07-13T12:20:05.348Z,27.90
2018-07-13T12:22:34.496Z,27.90
2018-07-13T12:25:04.089Z,27.90
2018-07-13T12:27:32.939Z,27.90
2018-07-13T12:30:02.744Z,28.00
2018-07-13T12:32:32.577Z,28.10
2018-07-13T12:35:01.894Z,28.40
2018-07-13T12:37:31.570Z,28.80
2018-07-13T12:40:01.629Z,29.20
2018-07-13T12:42:31.763Z,29.50
2018-07-13T12:45:01.108Z,29.80
2018-07-13T12:47:31.339Z,29.90
2018-07-13T12:49:59.650Z,29.70
2018-07-13T12:52:27.934Z,29.70
2018-07-13T12:54:57.112Z,29.80
2018-07-13T12:57:26.324Z,29.80
2018-07-13T12:59:55.611Z,30.00
2018-07-13T13:02:25.133Z,30.10
2018-07-13T13:04:54.300Z,30.20
2018-07-13T13:07:23.510Z,30.30
2018-07-13T13:09:53.111Z,30.50
2018-07-13T13:12:22.088Z,30.60
2018-07-13T13:14:51.150Z,30.60
2018-07-13T13:17:22.340Z,30.70
2018-07-13T13:19:53.660Z,30.70
2018-07-13T13:22:22.679Z,30.60
2018-07-13T13:24:51.349Z,30.60
2018-07-13T13:27:19.802Z,30.60
2018-07-13T13:29:48.852Z,30.70
2018-07-13T13:32:17.829Z,30.70
2018-07-13T13:34:47.331Z,30.70
2018-07-13T13:37:15.811Z,30.70
2018-07-13T13:39:44.151Z,30.30
2018-07-13T13:42:14.050Z,29.90
2018-07-13T13:44:43.427Z,29.50
2018-07-13T13:47:14.560Z,28.90
2018-07-13T13:49:45.186Z,28.70
2018-07-13T13:52:15.727Z,27.90
2018-07-13T13:54:44.345Z,27.20
2018-07-13T13:57:14.325Z,26.70
2018-07-13T13:59:45.075Z,26.40
2018-07-13T14:02:15.004Z,26.30
2018-07-13T14:07:13.875Z,26.00
2018-07-13T14:09:43.598Z,25.70
2018-07-13T14:12:13.485Z,24.70
2018-07-13T14:14:42.856Z,23.90
2018-07-13T14:17:12.157Z,22.70
2018-07-13T14:19:41.296Z,21.70
2018-07-13T14:22:09.633Z,20.90
2018-07-13T14:24:39.242Z,20.40
2018-07-13T14:27:08.198Z,20.40
2018-07-13T14:29:38.051Z,20.60
2018-07-13T14:32:09.171Z,20.70
2018-07-13T14:34:40.044Z,21.00
2018-07-13T14:37:08.807Z,21.30
2018-07-13T14:39:39.046Z,21.70
2018-07-13T14:42:07.671Z,21.90
2018-07-13T14:44:36.063Z,22.10
2018-07-13T14:47:04.416Z,22.10
2018-07-13T14:49:32.658Z,22.20
2018-07-13T14:52:00.926Z,22.30
2018-07-13T14:54:29.202Z,22.40
2018-07-13T14:56:57.476Z,22.50
2018-07-13T14:59:26.724Z,22.50
2018-07-13T15:01:58.006Z,22.40
2018-07-13T15:04:27.745Z,22.00
2018-07-13T15:06:56.640Z,21.40
2018-07-13T15:09:25.661Z,20.80
2018-07-13T15:11:57.774Z,20.40
2018-07-13T15:14:29.112Z,20.20
2018-07-13T15:16:57.997Z,20.00
2018-07-13T15:19:27.135Z,18.90
2018-07-13T15:21:55.884Z,18.30
2018-07-13T15:24:24.501Z,17.90
2018-07-13T15:26:54.474Z,17.70
2018-07-13T15:29:23.996Z,17.40
2018-07-13T15:31:52.932Z,17.00
2018-07-13T15:34:21.821Z,16.90
2018-07-13T15:36:50.182Z,16.90
2018-07-13T15:39:18.706Z,16.90
2018-07-13T15:41:47.363Z,17.10
2018-07-13T15:44:16.332Z,17.40
2018-07-13T15:46:46.335Z,17.80
2018-07-13T15:49:14.866Z,18.40
2018-07-13T15:51:43.423Z,18.80
2018-07-13T15:54:11.774Z,19.10
2018-07-13T15:56:43.078Z,19.20
2018-07-13T15:59:13.286Z,19.20
2018-07-13T16:01:42.362Z,19.20
2018-07-13T16:04:11.507Z,19.10
2018-07-13T16:06:40.882Z,19.30
2018-07-13T16:09:09.434Z,19.50
2018-07-13T16:11:38.378Z,19.50
2018-07-13T16:14:06.931Z,19.50
2018-07-13T16:16:35.742Z,19.60
2018-07-13T16:19:04.731Z,19.60
2018-07-13T16:21:36.286Z,19.50
2018-07-13T16:24:05.390Z,19.40
2018-07-13T17:10:16.317Z,19.50
2018-07-13T17:12:47.955Z,19.00
2018-07-13T17:15:17.499Z,19.00
2018-07-13T17:17:49.038Z,19.20
2018-07-13T17:20:17.367Z,19.40
2018-07-13T17:22:45.658Z,19.40
2018-07-13T17:25:14.398Z,19.70
2018-07-13T17:27:45.606Z,19.80
2018-07-13T17:30:15.023Z,19.80
2018-07-13T17:32:43.705Z,19.80
2018-07-13T17:35:12.360Z,19.80
2018-07-13T17:37:45.517Z,19.70
2018-07-13T17:40:13.860Z,19.60
2018-07-13T17:42:42.263Z,19.60
2018-07-13T17:45:10.640Z,19.60
2018-07-13T17:47:38.890Z,19.50
2018-07-13T17:50:08.184Z,19.50
2018-07-13T17:52:36.683Z,19.40
2018-07-13T17:55:05.134Z,19.40
2018-07-13T17:57:33.526Z,19.30
2018-07-13T18:00:02.365Z,19.30
2018-07-13T18:02:30.669Z,19.30
2018-07-13T18:04:59.624Z,19.30
2018-07-13T18:07:28.111Z,19.30
2018-07-13T18:09:56.539Z,19.30
2018-07-13T18:14:54.402Z,19.40
2018-07-13T18:17:23.394Z,19.40
2018-07-13T18:19:51.797Z,19.50
2018-07-13T18:22:20.463Z,19.50
2018-07-13T18:24:48.939Z,19.60
2018-07-13T18:27:18.050Z,19.70
2018-07-13T18:29:47.499Z,19.70
2018-07-13T18:32:15.980Z,19.80
2018-07-13T18:34:44.655Z,19.90
2018-07-13T18:37:13.712Z,19.90
2018-07-13T18:39:42.840Z,19.90
2018-07-13T18:42:13.894Z,19.90
2018-07-13T18:44:44.046Z,19.90
2018-07-13T18:47:12.908Z,19.90
2018-07-13T18:49:42.013Z,19.90
2018-07-13T18:52:11.578Z,19.80
2018-07-13T18:54:41.119Z,19.80
2018-07-13T18:57:13.630Z,19.70
2018-07-13T18:59:42.689Z,19.60
2018-07-13T19:02:11.609Z,19.60
2018-07-13T19:04:40.318Z,19.50
2018-07-13T19:07:13.170Z,19.40
2018-07-13T19:09:50.291Z,19.30
2018-07-13T19:12:19.002Z,19.20
2018-07-13T19:14:48.766Z,19.10
2018-07-13T19:17:17.934Z,19.00
2018-07-13T19:19:46.214Z,18.90
2018-07-13T19:22:14.483Z,18.80
2018-07-13T19:24:42.762Z,18.60
2018-07-13T19:27:11.142Z,18.70
2018-07-13T19:29:40.203Z,18.70
2018-07-13T19:32:08.911Z,18.70
2018-07-13T19:34:38.402Z,18.70
2018-07-13T19:37:06.658Z,18.70
2018-07-13T19:39:34.938Z,18.70
2018-07-13T19:42:03.367Z,18.70
2018-07-13T19:44:32.349Z,18.70
2018-07-13T19:47:01.803Z,18.70
2018-07-13T19:49:30.877Z,18.60
2018-07-13T19:52:00.160Z,18.50
2018-07-13T19:54:29.004Z,18.40
2018-07-13T19:56:58.525Z,18.30
2018-07-13T19:59:27.193Z,18.10
2018-07-13T20:01:55.578Z,18.10
2018-07-13T20:04:23.951Z,18.00
2018-07-13T20:06:55.264Z,18.00
2018-07-13T20:09:25.071Z,18.00
2018-07-13T20:11:53.859Z,18.10
2018-07-13T20:14:23.982Z,18.00
2018-07-13T20:16:53.725Z,18.00
2018-07-13T20:19:24.216Z,18.00
2018-07-13T20:21:55.255Z,18.00
2018-07-13T20:24:24.264Z,17.90
2018-07-13T20:26:53.381Z,17.80
2018-07-13T20:29:24.193Z,17.80
2018-07-13T20:31:52.875Z,17.70
2018-07-13T20:34:21.396Z,17.70
2018-07-13T20:36:51.153Z,17.70
2018-07-13T20:39:19.953Z,17.70
2018-07-13T20:41:48.582Z,17.80
2018-07-13T20:44:17.062Z,17.80
2018-07-13T20:46:45.404Z,17.80
2018-07-13T20:49:14.447Z,17.90
2018-07-13T20:51:42.723Z,17.90
2018-07-13T20:54:10.996Z,17.90
2018-07-13T20:56:39.355Z,18.00
2018-07-13T20:59:07.815Z,18.00
2018-07-13T21:01:36.205Z,18.00
2018-07-13T21:04:04.566Z,18.00
2018-07-13T21:06:33.180Z,17.90
2018-07-13T21:09:02.483Z,17.90
2018-07-13T21:11:31.330Z,17.90
2018-07-13T21:16:28.994Z,17.90
2018-07-13T21:18:57.911Z,17.90
2018-07-13T21:21:26.783Z,18.00
2018-07-13T21:23:55.300Z,18.00
2018-07-13T21:26:23.667Z,18.10
2018-07-13T21:31:20.990Z,17.90
2018-07-13T21:33:49.613Z,17.80
2018-07-13T21:36:17.882Z,17.70
2018-07-13T21:38:46.169Z,17.60
2018-07-13T21:41:14.442Z,17.60
2018-07-13T21:43:42.696Z,17.60
2018-07-13T21:46:11.153Z,17.60
2018-07-13T21:48:39.438Z,17.60
2018-07-13T21:51:08.310Z,17.70
2018-07-13T21:53:36.938Z,17.60
2018-07-13T21:56:05.490Z,17.50
2018-07-13T21:58:34.090Z,17.50
2018-07-13T22:01:03.361Z,17.40
2018-07-13T22:03:31.656Z,17.40
2018-07-13T22:06:00.730Z,17.40
2018-07-13T22:08:29.325Z,17.40
2018-07-13T22:10:58.011Z,17.50
2018-07-13T22:13:26.572Z,17.40
2018-07-13T22:15:54.949Z,17.50
2018-07-13T22:18:23.161Z,17.50
2018-07-13T22:20:51.611Z,17.60
2018-07-13T22:23:20.561Z,17.70
2018-07-13T22:25:49.190Z,17.80
2018-07-13T22:28:17.450Z,17.80
2018-07-13T22:30:45.736Z,17.70
2018-07-13T22:33:14.003Z,17.70
2018-07-13T22:35:42.282Z,17.70
2018-07-13T22:38:11.419Z,17.70
2018-07-13T22:40:40.078Z,17.70
2018-07-13T22:43:08.566Z,17.70
2018-07-13T22:45:38.293Z,17.70
2018-07-13T22:48:07.267Z,17.50
2018-07-13T22:50:36.102Z,17.40
2018-07-13T22:53:04.531Z,17.30
2018-07-13T22:55:32.970Z,17.20
2018-07-13T22:58:01.549Z,17.20
2018-07-13T23:00:29.881Z,17.20
2018-07-13T23:02:58.601Z,17.30
2018-07-13T23:05:26.923Z,17.40
2018-07-13T23:07:55.245Z,17.40
2018-07-13T23:10:23.602Z,17.40
2018-07-13T23:12:51.858Z,17.40
2018-07-13T23:15:20.155Z,17.40
2018-07-13T23:17:48.769Z,17.30
2018-07-13T23:20:17.357Z,17.30
2018-07-13T23:22:46.439Z,17.30
2018-07-13T23:25:14.758Z,17.30
2018-07-13T23:27:43.723Z,17.30
2018-07-13T23:30:14.854Z,17.20
2018-07-13T23:32:44.855Z,17.20
2018-07-13T23:35:13.814Z,17.10
2018-07-13T23:37:42.172Z,17.00
2018-07-13T23:40:10.933Z,17.00
2018-07-13T23:42:40.134Z,16.90
2018-07-13T23:45:08.743Z,16.90
2018-07-13T23:47:37.170Z,16.90
2018-07-13T23:50:06.365Z,16.90
2018-07-13T23:52:35.198Z,16.90
2018-07-13T23:55:07.342Z,16.90
2018-07-13T23:57:35.878Z,16.80
